Terminal Aerodrome Forecast
Issued by NWS

Home | Current Version | Previous Version | Text Only | Print | Product List | Glossary On
Versions: 1 2 3 4 5 6 7 8 9 10 11 12 13 14 15 16
000
FTUS42 KGSP 200901 AAA
TAFHKY
TAF AMD
KHKY 200901Z 2009/2106 02003KT 5SM -SHRA BR OVC015
      TEMPO 2009/2011 2SM SHRA BR OVC007
     FM201100 VRB03KT 5SM -SHRA BR OVC007
     FM201600 VRB02KT P6SM OVC007
     FM202100 21004KT P6SM BKN035
     FM210200 VRB02KT 5SM BR BKN015=

USA.gov is the U.S. government's official web portal to all federal, state and local government web resources and services.